createdAt,value
2022-08-17T00:01:52.520Z,58.85
2022-08-17T00:04:23.207Z,58.53
2022-08-17T00:06:53.496Z,58.71
2022-08-17T00:09:23.747Z,58.67
2022-08-17T00:12:03.928Z,58.99
2022-08-17T00:14:46.457Z,59.05
2022-08-17T00:17:16.574Z,59.48
2022-08-17T00:19:47.101Z,59.68
2022-08-17T00:22:31.004Z,59.93
2022-08-17T00:25:07.504Z,59.75
2022-08-17T00:27:38.564Z,60.07
2022-08-17T00:30:14.766Z,59.80
2022-08-17T00:33:12.121Z,60.09
2022-08-17T00:35:37.953Z,59.90
2022-08-17T00:38:10.018Z,60.03
2022-08-17T00:40:44.969Z,60.04
2022-08-17T00:43:21.367Z,59.94
2022-08-17T00:45:54.238Z,60.67
2022-08-17T00:48:29.293Z,60.34
2022-08-17T00:53:56.490Z,60.47
2022-08-17T00:56:32.512Z,60.67
2022-08-17T00:59:14.568Z,60.96
2022-08-17T01:01:48.053Z,60.89
2022-08-17T01:04:19.667Z,60.75
2022-08-17T01:06:50.947Z,60.73
2022-08-17T01:09:21.782Z,60.90
2022-08-17T01:11:52.808Z,60.74
2022-08-17T01:14:23.338Z,60.75
2022-08-17T01:16:58.493Z,60.63
2022-08-17T01:19:32.387Z,60.33
2022-08-17T01:22:09.376Z,60.98
2022-08-17T01:24:45.057Z,60.81
2022-08-17T01:27:16.570Z,60.83
2022-08-17T01:29:53.270Z,60.95
2022-08-17T01:32:23.477Z,60.88
2022-08-17T01:34:53.568Z,60.83
2022-08-17T01:37:33.344Z,61.07
2022-08-17T01:40:12.561Z,61.50
2022-08-17T01:42:49.827Z,61.30
2022-08-17T01:45:23.322Z,61.48
2022-08-17T01:47:54.807Z,61.38
2022-08-17T01:50:28.527Z,61.77
2022-08-17T01:53:02.509Z,62.26
2022-08-17T01:55:41.168Z,61.75
2022-08-17T01:58:11.362Z,62.09
2022-08-17T02:00:52.407Z,62.39
2022-08-17T02:03:32.875Z,62.21
2022-08-17T02:06:05.237Z,61.93
2022-08-17T02:08:36.974Z,61.87
2022-08-17T02:11:15.857Z,62.35
2022-08-17T02:13:46.514Z,61.80
2022-08-17T02:16:16.996Z,62.08
2022-08-17T02:18:47.425Z,62.18
2022-08-17T02:21:17.698Z,62.13
2022-08-17T02:23:50.745Z,62.46
2022-08-17T02:26:25.814Z,62.92
2022-08-17T02:28:57.116Z,62.82
2022-08-17T02:31:27.227Z,62.95
2022-08-17T02:34:04.141Z,63.08
2022-08-17T02:36:39.177Z,62.84
2022-08-17T02:39:11.933Z,63.11
2022-08-17T02:41:45.143Z,63.26
2022-08-17T02:44:15.302Z,63.14
2022-08-17T02:47:05.544Z,63.51
2022-08-17T02:49:35.722Z,64.12
2022-08-17T02:52:06.802Z,64.11
2022-08-17T02:54:41.099Z,64.16
2022-08-17T02:57:14.712Z,64.82
2022-08-17T02:59:49.071Z,64.30
2022-08-17T03:02:19.463Z,64.37
2022-08-17T03:04:49.499Z,64.31
2022-08-17T03:07:20.468Z,64.58
2022-08-17T03:09:54.084Z,64.48
2022-08-17T03:12:26.854Z,64.31
2022-08-17T03:14:56.926Z,64.93
2022-08-17T03:17:27.144Z,64.65
2022-08-17T03:19:59.697Z,64.95
2022-08-17T03:22:37.357Z,65.35
2022-08-17T03:25:11.087Z,65.19
2022-08-17T03:27:44.664Z,65.02
2022-08-17T03:30:22.792Z,65.59
2022-08-17T03:32:55.357Z,65.19
2022-08-17T03:35:28.132Z,65.20
2022-08-17T03:38:00.238Z,65.23
2022-08-17T03:40:55.677Z,64.86
2022-08-17T03:43:26.012Z,65.08
2022-08-17T03:46:08.637Z,65.16
2022-08-17T03:49:10.211Z,64.81
2022-08-17T03:51:52.777Z,65.03
2022-08-17T03:54:35.270Z,64.73
2022-08-17T03:57:07.371Z,64.56
2022-08-17T03:59:42.224Z,63.77
2022-08-17T04:02:18.578Z,63.54
2022-08-17T04:04:51.023Z,63.66
2022-08-17T04:07:22.277Z,62.99
2022-08-17T04:09:53.245Z,62.30
2022-08-17T04:12:31.166Z,62.51
2022-08-17T04:15:04.044Z,62.54
2022-08-17T04:17:34.977Z,62.54
2022-08-17T04:20:13.637Z,62.27
2022-08-17T04:22:58.687Z,62.19
2022-08-17T04:25:30.129Z,62.30
2022-08-17T04:28:00.342Z,61.89
2022-08-17T04:30:34.977Z,61.69
2022-08-17T04:33:08.892Z,61.11
2022-08-17T04:35:41.598Z,61.04
2022-08-17T04:38:14.232Z,60.64
2022-08-17T04:40:57.498Z,60.47
2022-08-17T04:43:29.181Z,59.57
2022-08-17T04:46:03.752Z,59.42
2022-08-17T04:48:40.963Z,59.27
2022-08-17T04:51:14.047Z,58.84
2022-08-17T04:53:45.976Z,59.04
2022-08-17T04:56:28.747Z,58.92
2022-08-17T04:59:00.994Z,58.16
2022-08-17T05:01:37.061Z,57.30
2022-08-17T05:04:20.994Z,54.75
2022-08-17T05:07:00.547Z,50.88
2022-08-17T05:09:31.118Z,48.32
2022-08-17T05:12:03.669Z,46.49
2022-08-17T05:14:34.010Z,44.97
2022-08-17T05:17:09.648Z,44.78
2022-08-17T05:19:41.899Z,43.55
2022-08-17T05:22:12.041Z,42.67
2022-08-17T05:24:43.717Z,42.56
2022-08-17T05:27:24.098Z,42.41
2022-08-17T05:29:58.745Z,41.78
2022-08-17T05:32:37.951Z,40.44
2022-08-17T05:35:11.089Z,39.77
2022-08-17T05:37:41.314Z,39.50
2022-08-17T05:40:13.409Z,39.55
2022-08-17T05:42:44.031Z,40.63
2022-08-17T05:45:15.859Z,41.31
2022-08-17T05:47:56.423Z,41.21
2022-08-17T05:50:31.559Z,40.71
2022-08-17T05:53:08.987Z,40.83
2022-08-17T05:55:48.260Z,41.16
2022-08-17T05:58:27.495Z,40.83
2022-08-17T06:01:05.219Z,39.74
2022-08-17T06:03:55.113Z,39.52
2022-08-17T06:06:38.078Z,39.55
2022-08-17T06:09:28.865Z,39.45
2022-08-17T06:12:14.476Z,38.82
2022-08-17T06:15:04.295Z,37.88
2022-08-17T06:17:37.506Z,38.09
2022-08-17T06:20:16.851Z,37.66
2022-08-17T06:22:52.728Z,37.85
2022-08-17T06:25:32.599Z,36.92
2022-08-17T06:28:07.482Z,36.40
2022-08-17T06:31:00.836Z,36.83
2022-08-17T06:33:35.045Z,36.10
2022-08-17T06:36:23.689Z,36.20
2022-08-17T06:39:06.119Z,35.12
2022-08-17T06:41:45.853Z,35.04
2022-08-17T06:44:50.204Z,35.07
2022-08-17T06:47:15.837Z,33.57
2022-08-17T06:50:07.255Z,32.91
2022-08-17T06:52:48.161Z,32.37
2022-08-17T06:55:24.057Z,32.40
2022-08-17T06:58:05.815Z,32.18
2022-08-17T07:00:48.832Z,32.39
2022-08-17T07:03:31.782Z,32.01
2022-08-17T07:06:08.326Z,31.29
2022-08-17T07:08:51.474Z,30.98
2022-08-17T07:11:28.482Z,32.55
2022-08-17T07:14:07.413Z,32.11
2022-08-17T07:16:44.117Z,31.10
2022-08-17T07:19:16.941Z,31.03
2022-08-17T07:21:56.633Z,29.55
2022-08-17T07:24:39.348Z,29.50
2022-08-17T07:27:17.376Z,29.47
2022-08-17T07:29:53.777Z,29.82
2022-08-17T07:32:31.691Z,29.38
2022-08-17T07:35:17.942Z,29.82
2022-08-17T07:37:54.210Z,29.50
2022-08-17T07:40:39.605Z,30.27
2022-08-17T07:43:29.629Z,29.33
2022-08-17T07:46:35.362Z,29.59
2022-08-17T07:49:35.418Z,29.08
2022-08-17T07:52:47.613Z,29.38
2022-08-17T07:54:59.211Z,28.62
2022-08-17T07:57:40.760Z,27.53
2022-08-17T08:00:31.658Z,28.35
2022-08-17T08:03:17.674Z,27.84
2022-08-17T08:05:54.645Z,28.70
2022-08-17T08:08:29.835Z,27.53
2022-08-17T08:11:11.479Z,28.20
2022-08-17T08:13:46.348Z,27.45
2022-08-17T08:16:24.545Z,27.59
2022-08-17T08:18:59.974Z,28.41
2022-08-17T08:21:49.429Z,28.28
2022-08-17T08:24:48.487Z,29.12
2022-08-17T08:27:30.669Z,29.09
2022-08-17T08:30:06.875Z,27.88
2022-08-17T08:32:54.347Z,28.27
2022-08-17T08:35:34.416Z,28.33
2022-08-17T08:38:17.467Z,29.05
2022-08-17T08:41:00.072Z,29.28
2022-08-17T08:43:40.510Z,29.02
2022-08-17T08:46:26.551Z,28.67
2022-08-17T08:50:01.276Z,26.77
2022-08-17T08:52:37.769Z,27.38
2022-08-17T08:55:19.744Z,27.14
2022-08-17T08:57:58.373Z,26.47
2022-08-17T09:00:34.610Z,27.52
2022-08-17T09:03:51.836Z,27.66
2022-08-17T09:06:39.356Z,27.52
2022-08-17T09:09:26.403Z,27.14
2022-08-17T09:12:05.179Z,27.29
2022-08-17T09:14:46.610Z,27.20
2022-08-17T09:17:22.066Z,26.79
2022-08-17T09:20:01.035Z,26.98
2022-08-17T09:22:38.623Z,27.22
2022-08-17T09:25:13.515Z,26.45
2022-08-17T09:28:03.759Z,27.04
2022-08-17T09:30:41.931Z,27.32
2022-08-17T09:33:14.388Z,27.03
2022-08-17T09:35:51.320Z,27.24
2022-08-17T09:38:31.830Z,26.83
2022-08-17T09:41:16.666Z,26.82
2022-08-17T09:43:55.713Z,26.54
2022-08-17T09:46:31.571Z,26.36
2022-08-17T09:49:09.863Z,26.77
2022-08-17T09:51:48.746Z,25.66
2022-08-17T09:54:39.508Z,25.91
2022-08-17T09:57:32.151Z,25.44
2022-08-17T10:00:20.093Z,25.56
2022-08-17T10:03:18.106Z,26.14
2022-08-17T10:05:56.888Z,25.46
2022-08-17T10:08:42.210Z,27.00
2022-08-17T10:11:22.523Z,26.77
2022-08-17T10:14:36.429Z,25.98
2022-08-17T10:17:11.331Z,26.27
2022-08-17T10:19:50.894Z,26.63
2022-08-17T10:22:41.259Z,25.08
2022-08-17T10:25:53.479Z,25.60
2022-08-17T10:28:29.433Z,26.17
2022-08-17T10:31:33.201Z,25.55
2022-08-17T10:34:21.345Z,25.63
2022-08-17T10:36:58.814Z,25.58
2022-08-17T10:39:51.932Z,27.22
2022-08-17T10:42:33.374Z,26.45
2022-08-17T10:45:08.377Z,27.25
2022-08-17T10:48:06.150Z,26.08
2022-08-17T10:50:50.646Z,25.08
2022-08-17T10:53:52.467Z,25.32
2022-08-17T10:56:28.178Z,24.94
2022-08-17T10:59:02.676Z,24.55
2022-08-17T11:02:03.358Z,24.63
2022-08-17T11:04:50.147Z,24.17
2022-08-17T11:07:28.587Z,23.82
2022-08-17T11:10:18.664Z,24.00
2022-08-17T11:12:57.178Z,24.41
2022-08-17T11:15:45.257Z,24.25
2022-08-17T11:18:35.907Z,23.72
2022-08-17T11:21:21.258Z,23.28
2022-08-17T11:24:16.730Z,23.72
2022-08-17T11:27:01.718Z,24.45
2022-08-17T11:29:36.900Z,24.89
2022-08-17T11:32:30.227Z,24.95
2022-08-17T11:35:13.753Z,25.71
2022-08-17T11:37:59.135Z,27.14
2022-08-17T11:41:05.536Z,26.26
2022-08-17T11:43:57.925Z,25.02
2022-08-17T11:46:57.197Z,25.12
2022-08-17T11:49:52.366Z,25.43
2022-08-17T11:52:39.051Z,24.59
2022-08-17T11:55:34.474Z,24.96
2022-08-17T11:58:06.531Z,25.36
2022-08-17T12:00:56.656Z,24.18
2022-08-17T12:03:54.479Z,24.58
2022-08-17T12:06:57.012Z,24.16
2022-08-17T12:09:31.570Z,24.87
2022-08-17T12:12:13.335Z,24.71
2022-08-17T12:17:42.939Z,24.88
2022-08-17T12:20:17.972Z,24.82
2022-08-17T12:22:57.731Z,25.24
2022-08-17T12:25:35.853Z,24.58
2022-08-17T12:28:23.909Z,24.64
2022-08-17T12:30:55.298Z,25.28
2022-08-17T12:33:28.963Z,24.26
2022-08-17T12:36:03.097Z,24.05
2022-08-17T12:38:38.869Z,24.52
2022-08-17T12:41:25.679Z,24.52
2022-08-17T12:44:02.506Z,24.50
2022-08-17T12:46:36.419Z,24.35
2022-08-17T12:49:25.683Z,25.35
2022-08-17T12:52:14.061Z,25.71
2022-08-17T12:54:52.711Z,25.35
2022-08-17T12:57:25.291Z,25.27
2022-08-17T13:00:01.362Z,25.28
2022-08-17T13:02:49.348Z,25.52
2022-08-17T13:05:25.899Z,25.36
2022-08-17T13:07:57.432Z,25.82
2022-08-17T13:10:34.043Z,25.29
2022-08-17T13:13:06.308Z,25.58
2022-08-17T13:15:46.170Z,25.66
2022-08-17T13:18:39.130Z,24.95
2022-08-17T13:21:14.051Z,24.71
2022-08-17T13:23:53.555Z,25.17
2022-08-17T13:26:32.686Z,24.91
2022-08-17T13:29:04.019Z,25.02
2022-08-17T13:31:52.413Z,25.42
2022-08-17T13:35:11.553Z,25.73
2022-08-17T13:37:33.829Z,25.41
2022-08-17T13:40:22.600Z,24.38
2022-08-17T13:42:56.982Z,24.24
2022-08-17T13:45:50.634Z,24.04
2022-08-17T13:48:28.087Z,24.97
2022-08-17T13:51:16.460Z,25.63
2022-08-17T13:54:10.662Z,25.25
2022-08-17T13:56:48.322Z,25.07
2022-08-17T13:59:54.317Z,24.60
2022-08-17T14:02:28.792Z,25.11
2022-08-17T14:05:02.019Z,24.29
2022-08-17T14:07:38.725Z,24.08
2022-08-17T14:10:14.480Z,22.72
2022-08-17T14:12:46.990Z,22.93
2022-08-17T14:15:22.568Z,22.87
2022-08-17T14:17:53.283Z,22.98
2022-08-17T14:20:25.341Z,22.88
2022-08-17T14:22:57.315Z,23.09
2022-08-17T14:25:30.483Z,22.32
2022-08-17T14:28:01.437Z,23.14
2022-08-17T14:30:35.772Z,21.81
2022-08-17T14:33:06.111Z,22.42
2022-08-17T14:35:36.754Z,22.65
2022-08-17T14:38:06.911Z,22.54
2022-08-17T14:40:40.043Z,22.39
2022-08-17T14:43:10.296Z,22.36
2022-08-17T14:45:43.008Z,22.00
2022-08-17T14:48:13.443Z,21.69
2022-08-17T14:50:46.382Z,21.99
2022-08-17T14:53:21.649Z,22.49
2022-08-17T14:55:53.364Z,22.58
2022-08-17T14:58:23.769Z,21.94
2022-08-17T15:00:56.874Z,21.64
2022-08-17T15:03:27.181Z,22.80
2022-08-17T15:05:57.460Z,22.69
2022-08-17T15:08:27.910Z,22.71
2022-08-17T15:10:58.191Z,21.78
2022-08-17T15:13:32.083Z,18.69
2022-08-17T15:16:13.911Z,18.72
2022-08-17T15:18:44.111Z,18.30
2022-08-17T15:21:15.036Z,18.28
2022-08-17T15:23:45.336Z,18.65
2022-08-17T15:26:16.995Z,18.72
2022-08-17T15:28:48.986Z,19.03
2022-08-17T15:31:32.378Z,18.92
2022-08-17T15:34:04.172Z,18.73
2022-08-17T15:36:49.154Z,19.54
2022-08-17T15:39:19.802Z,19.51
2022-08-17T15:41:58.508Z,19.29
2022-08-17T15:44:32.503Z,19.11
2022-08-17T15:47:08.581Z,19.51
2022-08-17T15:49:41.997Z,19.26
2022-08-17T15:52:19.660Z,19.61
2022-08-17T15:54:53.175Z,19.84
2022-08-17T15:57:24.192Z,20.44
2022-08-17T15:59:58.498Z,20.72
2022-08-17T16:03:46.814Z,20.73
2022-08-17T16:05:30.182Z,20.52
2022-08-17T16:08:02.430Z,20.71
2022-08-17T16:10:34.747Z,20.65
2022-08-17T16:13:05.989Z,20.40
2022-08-17T16:15:56.989Z,21.31
2022-08-17T16:18:32.639Z,21.92
2022-08-17T16:21:24.576Z,22.04
2022-08-17T16:23:56.728Z,22.82
2022-08-17T16:26:27.594Z,22.87
2022-08-17T16:28:58.652Z,23.46
2022-08-17T16:31:29.152Z,23.44
2022-08-17T16:34:17.670Z,23.75
2022-08-17T16:36:53.560Z,24.05
2022-08-17T16:39:27.026Z,24.47
2022-08-17T16:41:57.671Z,24.67
2022-08-17T16:44:30.542Z,25.08
2022-08-17T16:47:02.003Z,25.07
2022-08-17T16:49:36.874Z,25.46
2022-08-17T16:52:10.831Z,25.50
2022-08-17T16:54:44.080Z,25.86
2022-08-17T16:57:16.082Z,25.41
2022-08-17T16:59:51.599Z,25.71
2022-08-17T17:02:28.698Z,26.36
2022-08-17T17:05:06.189Z,26.40
2022-08-17T17:07:51.893Z,26.89
2022-08-17T17:10:26.474Z,26.95
2022-08-17T17:13:02.006Z,27.35
2022-08-17T17:15:51.830Z,27.46
2022-08-17T17:18:26.018Z,27.68
2022-08-17T17:21:01.273Z,27.92
2022-08-17T17:23:48.013Z,27.87
2022-08-17T17:26:31.854Z,28.54
2022-08-17T17:29:47.364Z,28.28
2022-08-17T17:32:23.313Z,28.71
2022-08-17T17:34:59.557Z,29.17
2022-08-17T17:37:37.295Z,29.78
2022-08-17T17:40:15.518Z,29.90
2022-08-17T17:42:47.244Z,30.55
2022-08-17T17:45:23.490Z,30.76
2022-08-17T17:47:53.779Z,30.92
2022-08-17T17:50:32.531Z,31.32
2022-08-17T17:53:09.023Z,31.63
2022-08-17T17:55:50.086Z,31.32
2022-08-17T17:58:35.861Z,31.66
2022-08-17T18:01:20.763Z,32.07
2022-08-17T18:04:15.667Z,32.61
2022-08-17T18:07:04.539Z,33.49
2022-08-17T18:10:01.143Z,33.38
2022-08-17T18:12:39.125Z,33.58
2022-08-17T18:15:29.630Z,34.38
2022-08-17T18:18:37.978Z,34.75
2022-08-17T18:21:15.919Z,35.15
2022-08-17T18:23:55.359Z,34.35
2022-08-17T18:26:45.023Z,34.57
2022-08-17T18:29:23.985Z,34.30
2022-08-17T18:32:16.043Z,34.48
2022-08-17T18:34:48.719Z,34.72
2022-08-17T18:37:34.395Z,34.41
2022-08-17T18:40:29.696Z,34.40
2022-08-17T18:43:14.235Z,35.09
2022-08-17T18:45:48.528Z,35.27
2022-08-17T18:48:33.135Z,35.04
2022-08-17T18:51:39.707Z,35.32
2022-08-17T18:54:19.013Z,35.93
2022-08-17T18:56:55.218Z,36.28
2022-08-17T18:59:42.510Z,36.36
2022-08-17T19:02:45.657Z,36.08
2022-08-17T19:05:30.493Z,37.00
2022-08-17T19:08:20.606Z,37.57
2022-08-17T19:10:54.605Z,38.04
2022-08-17T19:13:28.625Z,38.50
2022-08-17T19:16:14.104Z,38.70
2022-08-17T19:18:52.108Z,38.69
2022-08-17T19:21:26.843Z,39.30
2022-08-17T19:24:01.985Z,39.61
2022-08-17T19:26:53.662Z,40.00
2022-08-17T19:29:29.347Z,40.88
2022-08-17T19:32:02.744Z,41.50
2022-08-17T19:34:35.710Z,41.96
2022-08-17T19:37:09.736Z,41.69
2022-08-17T19:39:59.705Z,42.15
2022-08-17T19:42:42.560Z,42.55
2022-08-17T19:45:36.151Z,42.45
2022-08-17T19:48:17.477Z,43.20
2022-08-17T19:50:56.460Z,43.64
2022-08-17T19:54:04.347Z,44.27
2022-08-17T19:56:43.305Z,45.33
2022-08-17T19:59:25.490Z,45.29
2022-08-17T20:02:01.096Z,45.37
2022-08-17T20:04:42.250Z,46.02
2022-08-17T20:07:18.079Z,46.33
2022-08-17T20:09:54.667Z,45.89
2022-08-17T20:12:31.039Z,46.18
2022-08-17T20:15:07.481Z,47.41
2022-08-17T20:17:41.939Z,46.86
2022-08-17T20:20:31.488Z,47.19
2022-08-17T20:23:09.718Z,47.14
2022-08-17T20:25:48.016Z,47.53
2022-08-17T20:28:25.344Z,48.06
2022-08-17T20:30:55.710Z,48.12
2022-08-17T20:33:29.045Z,48.22
2022-08-17T20:36:19.015Z,47.90
2022-08-17T20:38:52.146Z,48.09
2022-08-17T20:41:24.408Z,48.39
2022-08-17T20:44:06.473Z,48.27
2022-08-17T20:46:54.707Z,48.22
2022-08-17T20:49:30.027Z,48.26
2022-08-17T20:52:10.004Z,48.62
2022-08-17T20:54:52.972Z,48.41
2022-08-17T20:57:50.149Z,48.67
2022-08-17T21:00:50.260Z,48.70
2022-08-17T21:03:52.086Z,49.49
2022-08-17T21:06:25.491Z,49.57
2022-08-17T21:09:01.888Z,49.78
2022-08-17T21:12:02.814Z,49.39
2022-08-17T21:14:43.766Z,49.86
2022-08-17T21:17:38.584Z,50.09
2022-08-17T21:20:17.680Z,50.68
2022-08-17T21:23:03.316Z,50.79
2022-08-17T21:26:00.168Z,50.39
2022-08-17T21:29:01.117Z,51.15
2022-08-17T21:31:37.695Z,50.89
2022-08-17T21:34:29.404Z,51.17
2022-08-17T21:37:34.944Z,51.10
2022-08-17T21:40:26.253Z,51.13
2022-08-17T21:42:59.146Z,51.61
2022-08-17T21:45:35.147Z,52.11
2022-08-17T21:48:15.658Z,52.52
2022-08-17T21:50:47.733Z,52.01
2022-08-17T21:53:33.041Z,52.69
2022-08-17T21:56:03.869Z,52.68
2022-08-17T21:58:40.399Z,52.76
2022-08-17T22:01:24.485Z,53.59
2022-08-17T22:04:01.333Z,53.12
2022-08-17T22:06:36.013Z,53.32
2022-08-17T22:09:17.828Z,53.33
2022-08-17T22:12:00.824Z,53.56
2022-08-17T22:14:52.198Z,53.84
2022-08-17T22:17:26.674Z,53.84
2022-08-17T22:19:59.412Z,54.27
2022-08-17T22:22:57.289Z,54.47
2022-08-17T22:25:31.520Z,54.21
2022-08-17T22:28:04.158Z,54.11
2022-08-17T22:30:39.928Z,54.52
2022-08-17T22:33:39.745Z,54.65
2022-08-17T22:36:25.648Z,54.38
2022-08-17T22:38:58.090Z,55.14
2022-08-17T22:41:41.289Z,54.94
2022-08-17T22:44:19.031Z,54.40
2022-08-17T22:46:59.625Z,55.05
2022-08-17T22:49:34.298Z,54.61
2022-08-17T22:52:08.025Z,54.97
2022-08-17T22:54:50.514Z,54.67
2022-08-17T22:57:39.313Z,54.94
2022-08-17T23:00:31.595Z,54.82
2022-08-17T23:03:20.559Z,54.89
2022-08-17T23:06:05.044Z,55.06
2022-08-17T23:08:38.528Z,54.98
2022-08-17T23:11:09.405Z,55.12
2022-08-17T23:13:42.399Z,55.49
2022-08-17T23:16:13.481Z,54.82
2022-08-17T23:18:43.761Z,54.61
2022-08-17T23:21:13.901Z,54.54
2022-08-17T23:23:55.952Z,54.65
2022-08-17T23:26:27.816Z,54.91
2022-08-17T23:29:04.443Z,54.68
2022-08-17T23:31:39.107Z,54.58
2022-08-17T23:34:13.061Z,54.34
2022-08-17T23:36:52.546Z,54.88
2022-08-17T23:39:28.089Z,54.72
2022-08-17T23:41:59.221Z,54.77
2022-08-17T23:44:32.843Z,55.13
2022-08-17T23:47:03.762Z,54.92
2022-08-17T23:49:36.225Z,54.82
2022-08-17T23:52:12.747Z,54.73
2022-08-17T23:54:47.237Z,54.74
2022-08-17T23:57:19.415Z,55.24
2022-08-17T23:59:52.433Z,54.95
